sensor_id;sensor_type;location;lat;lon;timestamp;P1;durP1;ratioP1;P2;durP2;ratioP2
36663;SDS011;53333;51.976;20.144;2022-07-29T00:02:23;13.15;;;5.35;;
36663;SDS011;53333;51.976;20.144;2022-07-29T00:04:56;6.78;;;3.97;;
36663;SDS011;53333;51.976;20.144;2022-07-29T00:07:32;8.10;;;4.45;;
36663;SDS011;53333;51.976;20.144;2022-07-29T00:10:07;6.55;;;4.07;;
36663;SDS011;53333;51.976;20.144;2022-07-29T00:12:41;9.65;;;4.28;;
36663;SDS011;53333;51.976;20.144;2022-07-29T00:15:17;9.35;;;4.03;;
36663;SDS011;53333;51.976;20.144;2022-07-29T00:20:25;8.93;;;4.78;;
36663;SDS011;53333;51.976;20.144;2022-07-29T00:25:32;5.45;;;3.90;;
36663;SDS011;53333;51.976;20.144;2022-07-29T00:30:39;6.72;;;3.80;;
36663;SDS011;53333;51.976;20.144;2022-07-29T00:33:16;9.15;;;4.22;;
36663;SDS011;53333;51.976;20.144;2022-07-29T00:35:49;7.28;;;4.10;;
36663;SDS011;53333;51.976;20.144;2022-07-29T00:38:23;8.90;;;3.90;;
36663;SDS011;53333;51.976;20.144;2022-07-29T00:40:57;7.85;;;4.05;;
36663;SDS011;53333;51.976;20.144;2022-07-29T00:46:04;6.45;;;3.70;;
36663;SDS011;53333;51.976;20.144;2022-07-29T00:48:39;8.40;;;3.88;;
36663;SDS011;53333;51.976;20.144;2022-07-29T00:51:13;5.63;;;3.75;;
36663;SDS011;53333;51.976;20.144;2022-07-29T00:53:48;10.25;;;4.30;;
36663;SDS011;53333;51.976;20.144;2022-07-29T00:56:22;9.18;;;4.30;;
36663;SDS011;53333;51.976;20.144;2022-07-29T00:58:56;8.40;;;4.32;;
36663;SDS011;53333;51.976;20.144;2022-07-29T01:01:30;8.15;;;4.85;;
36663;SDS011;53333;51.976;20.144;2022-07-29T01:06:40;8.30;;;4.00;;
36663;SDS011;53333;51.976;20.144;2022-07-29T01:09:14;16.90;;;4.90;;
36663;SDS011;53333;51.976;20.144;2022-07-29T01:12:10;8.68;;;4.97;;
36663;SDS011;53333;51.976;20.144;2022-07-29T01:14:45;12.43;;;4.38;;
36663;SDS011;53333;51.976;20.144;2022-07-29T01:17:21;10.48;;;4.20;;
36663;SDS011;53333;51.976;20.144;2022-07-29T01:20:02;12.25;;;4.35;;
36663;SDS011;53333;51.976;20.144;2022-07-29T01:22:44;8.02;;;4.25;;
36663;SDS011;53333;51.976;20.144;2022-07-29T01:29:02;11.07;;;4.55;;
36663;SDS011;53333;51.976;20.144;2022-07-29T01:31:42;7.35;;;5.03;;
36663;SDS011;53333;51.976;20.144;2022-07-29T01:34:31;7.00;;;4.60;;
36663;SDS011;53333;51.976;20.144;2022-07-29T01:37:14;9.68;;;4.32;;
36663;SDS011;53333;51.976;20.144;2022-07-29T01:39:54;10.20;;;5.15;;
36663;SDS011;53333;51.976;20.144;2022-07-29T01:42:30;7.38;;;4.57;;
36663;SDS011;53333;51.976;20.144;2022-07-29T01:45:12;10.00;;;4.25;;
36663;SDS011;53333;51.976;20.144;2022-07-29T01:47:52;7.70;;;4.80;;
36663;SDS011;53333;51.976;20.144;2022-07-29T01:50:31;10.75;;;4.18;;
36663;SDS011;53333;51.976;20.144;2022-07-29T01:53:08;6.22;;;4.40;;
36663;SDS011;53333;51.976;20.144;2022-07-29T01:55:45;7.13;;;4.25;;
36663;SDS011;53333;51.976;20.144;2022-07-29T01:58:19;6.55;;;4.65;;
36663;SDS011;53333;51.976;20.144;2022-07-29T02:00:57;9.23;;;4.97;;
36663;SDS011;53333;51.976;20.144;2022-07-29T02:03:32;10.57;;;5.43;;
36663;SDS011;53333;51.976;20.144;2022-07-29T02:06:09;8.57;;;5.38;;
36663;SDS011;53333;51.976;20.144;2022-07-29T02:08:44;14.75;;;5.30;;
36663;SDS011;53333;51.976;20.144;2022-07-29T02:11:20;9.82;;;5.18;;
36663;SDS011;53333;51.976;20.144;2022-07-29T02:13:54;7.85;;;4.45;;
36663;SDS011;53333;51.976;20.144;2022-07-29T02:16:32;13.15;;;5.22;;
36663;SDS011;53333;51.976;20.144;2022-07-29T02:19:08;9.95;;;4.50;;
36663;SDS011;53333;51.976;20.144;2022-07-29T02:21:43;13.63;;;4.68;;
36663;SDS011;53333;51.976;20.144;2022-07-29T02:24:18;10.68;;;5.50;;
36663;SDS011;53333;51.976;20.144;2022-07-29T02:26:53;12.98;;;4.78;;
36663;SDS011;53333;51.976;20.144;2022-07-29T02:29:29;9.60;;;5.00;;
36663;SDS011;53333;51.976;20.144;2022-07-29T02:32:06;9.80;;;5.50;;
36663;SDS011;53333;51.976;20.144;2022-07-29T02:34:44;8.45;;;4.90;;
36663;SDS011;53333;51.976;20.144;2022-07-29T02:37:21;9.13;;;5.50;;
36663;SDS011;53333;51.976;20.144;2022-07-29T02:39:56;15.25;;;5.97;;
36663;SDS011;53333;51.976;20.144;2022-07-29T02:42:32;9.13;;;5.50;;
36663;SDS011;53333;51.976;20.144;2022-07-29T02:45:11;9.23;;;5.05;;
36663;SDS011;53333;51.976;20.144;2022-07-29T02:50:22;10.05;;;4.88;;
36663;SDS011;53333;51.976;20.144;2022-07-29T02:53:09;9.32;;;5.25;;
36663;SDS011;53333;51.976;20.144;2022-07-29T02:55:49;7.03;;;4.88;;
36663;SDS011;53333;51.976;20.144;2022-07-29T02:58:29;9.77;;;5.68;;
36663;SDS011;53333;51.976;20.144;2022-07-29T03:01:08;16.02;;;5.22;;
36663;SDS011;53333;51.976;20.144;2022-07-29T03:03:53;10.43;;;5.10;;
36663;SDS011;53333;51.976;20.144;2022-07-29T03:06:27;12.40;;;4.63;;
36663;SDS011;53333;51.976;20.144;2022-07-29T03:09:10;7.85;;;4.82;;
36663;SDS011;53333;51.976;20.144;2022-07-29T03:11:45;11.30;;;5.32;;
36663;SDS011;53333;51.976;20.144;2022-07-29T03:14:21;12.23;;;5.47;;
36663;SDS011;53333;51.976;20.144;2022-07-29T03:16:55;8.00;;;5.85;;
36663;SDS011;53333;51.976;20.144;2022-07-29T03:19:31;9.75;;;5.30;;
36663;SDS011;53333;51.976;20.144;2022-07-29T03:22:06;8.52;;;5.47;;
36663;SDS011;53333;51.976;20.144;2022-07-29T03:24:40;11.05;;;5.28;;
36663;SDS011;53333;51.976;20.144;2022-07-29T03:29:47;9.43;;;5.23;;
36663;SDS011;53333;51.976;20.144;2022-07-29T03:32:21;7.82;;;4.85;;
36663;SDS011;53333;51.976;20.144;2022-07-29T03:34:57;6.25;;;4.75;;
36663;SDS011;53333;51.976;20.144;2022-07-29T03:37:31;11.38;;;5.10;;
36663;SDS011;53333;51.976;20.144;2022-07-29T03:40:06;10.57;;;5.70;;
36663;SDS011;53333;51.976;20.144;2022-07-29T03:42:43;9.57;;;5.13;;
36663;SDS011;53333;51.976;20.144;2022-07-29T03:45:20;7.75;;;4.82;;
36663;SDS011;53333;51.976;20.144;2022-07-29T03:47:57;14.48;;;5.60;;
36663;SDS011;53333;51.976;20.144;2022-07-29T03:50:35;8.43;;;5.03;;
36663;SDS011;53333;51.976;20.144;2022-07-29T03:53:09;14.02;;;5.15;;
36663;SDS011;53333;51.976;20.144;2022-07-29T03:55:43;13.88;;;5.13;;
36663;SDS011;53333;51.976;20.144;2022-07-29T03:58:19;8.57;;;4.30;;
36663;SDS011;53333;51.976;20.144;2022-07-29T04:00:54;11.18;;;5.80;;
36663;SDS011;53333;51.976;20.144;2022-07-29T04:03:28;9.57;;;5.70;;
36663;SDS011;53333;51.976;20.144;2022-07-29T04:06:05;13.57;;;5.18;;
36663;SDS011;53333;51.976;20.144;2022-07-29T04:08:39;12.77;;;4.93;;
36663;SDS011;53333;51.976;20.144;2022-07-29T04:13:49;9.25;;;4.80;;
36663;SDS011;53333;51.976;20.144;2022-07-29T04:18:56;12.93;;;5.75;;
36663;SDS011;53333;51.976;20.144;2022-07-29T04:21:32;9.20;;;5.13;;
36663;SDS011;53333;51.976;20.144;2022-07-29T04:24:10;13.23;;;5.00;;
36663;SDS011;53333;51.976;20.144;2022-07-29T04:26:45;11.38;;;4.93;;
36663;SDS011;53333;51.976;20.144;2022-07-29T04:29:18;16.05;;;5.47;;
36663;SDS011;53333;51.976;20.144;2022-07-29T04:31:52;11.55;;;4.70;;
36663;SDS011;53333;51.976;20.144;2022-07-29T04:37:01;7.97;;;4.60;;
36663;SDS011;53333;51.976;20.144;2022-07-29T04:39:34;12.32;;;5.45;;
36663;SDS011;53333;51.976;20.144;2022-07-29T04:42:11;13.15;;;4.65;;
36663;SDS011;53333;51.976;20.144;2022-07-29T04:44:47;11.18;;;4.75;;
36663;SDS011;53333;51.976;20.144;2022-07-29T04:47:22;7.15;;;4.40;;
36663;SDS011;53333;51.976;20.144;2022-07-29T04:52:30;10.03;;;4.30;;
36663;SDS011;53333;51.976;20.144;2022-07-29T04:55:04;8.18;;;4.40;;
36663;SDS011;53333;51.976;20.144;2022-07-29T04:57:39;8.07;;;4.15;;
36663;SDS011;53333;51.976;20.144;2022-07-29T05:00:13;14.40;;;4.30;;
36663;SDS011;53333;51.976;20.144;2022-07-29T05:02:47;12.60;;;5.45;;
36663;SDS011;53333;51.976;20.144;2022-07-29T05:05:22;9.60;;;4.28;;
36663;SDS011;53333;51.976;20.144;2022-07-29T05:08:06;15.65;;;4.95;;
36663;SDS011;53333;51.976;20.144;2022-07-29T05:10:40;11.48;;;4.25;;
36663;SDS011;53333;51.976;20.144;2022-07-29T05:15:49;8.75;;;4.20;;
36663;SDS011;53333;51.976;20.144;2022-07-29T05:18:23;12.35;;;4.47;;
36663;SDS011;53333;51.976;20.144;2022-07-29T05:23:32;15.10;;;3.80;;
36663;SDS011;53333;51.976;20.144;2022-07-29T05:26:05;15.88;;;4.43;;
36663;SDS011;53333;51.976;20.144;2022-07-29T05:28:39;11.80;;;4.32;;
36663;SDS011;53333;51.976;20.144;2022-07-29T05:31:15;12.00;;;3.70;;
36663;SDS011;53333;51.976;20.144;2022-07-29T05:33:49;13.65;;;4.78;;
36663;SDS011;53333;51.976;20.144;2022-07-29T05:36:23;8.63;;;3.58;;
36663;SDS011;53333;51.976;20.144;2022-07-29T05:39:10;8.40;;;4.43;;
36663;SDS011;53333;51.976;20.144;2022-07-29T05:41:44;12.70;;;3.92;;
36663;SDS011;53333;51.976;20.144;2022-07-29T05:44:22;9.18;;;3.58;;
36663;SDS011;53333;51.976;20.144;2022-07-29T05:46:59;14.07;;;3.47;;
36663;SDS011;53333;51.976;20.144;2022-07-29T05:49:32;10.90;;;3.83;;
36663;SDS011;53333;51.976;20.144;2022-07-29T05:52:06;8.75;;;3.40;;
36663;SDS011;53333;51.976;20.144;2022-07-29T05:54:44;6.38;;;3.92;;
36663;SDS011;53333;51.976;20.144;2022-07-29T05:57:18;7.28;;;2.95;;
36663;SDS011;53333;51.976;20.144;2022-07-29T05:59:52;5.78;;;3.58;;
36663;SDS011;53333;51.976;20.144;2022-07-29T06:02:28;5.85;;;2.78;;
36663;SDS011;53333;51.976;20.144;2022-07-29T06:05:02;5.63;;;2.70;;
36663;SDS011;53333;51.976;20.144;2022-07-29T06:07:41;9.77;;;2.95;;
36663;SDS011;53333;51.976;20.144;2022-07-29T06:10:23;7.72;;;2.70;;
36663;SDS011;53333;51.976;20.144;2022-07-29T06:12:57;11.50;;;4.13;;
36663;SDS011;53333;51.976;20.144;2022-07-29T06:15:31;11.63;;;3.38;;
36663;SDS011;53333;51.976;20.144;2022-07-29T06:18:05;7.30;;;2.72;;
36663;SDS011;53333;51.976;20.144;2022-07-29T06:20:41;5.38;;;2.75;;
36663;SDS011;53333;51.976;20.144;2022-07-29T06:23:15;7.43;;;2.53;;
36663;SDS011;53333;51.976;20.144;2022-07-29T06:25:50;5.40;;;2.70;;
36663;SDS011;53333;51.976;20.144;2022-07-29T06:28:26;8.25;;;2.75;;
36663;SDS011;53333;51.976;20.144;2022-07-29T06:31:00;5.75;;;2.53;;
36663;SDS011;53333;51.976;20.144;2022-07-29T06:33:37;5.88;;;2.35;;
36663;SDS011;53333;51.976;20.144;2022-07-29T06:36:12;7.43;;;2.97;;
36663;SDS011;53333;51.976;20.144;2022-07-29T06:38:46;5.13;;;2.22;;
36663;SDS011;53333;51.976;20.144;2022-07-29T06:41:24;4.47;;;2.55;;
36663;SDS011;53333;51.976;20.144;2022-07-29T06:43:59;7.38;;;2.42;;
36663;SDS011;53333;51.976;20.144;2022-07-29T06:46:33;6.25;;;2.33;;
36663;SDS011;53333;51.976;20.144;2022-07-29T06:49:07;4.57;;;2.10;;
36663;SDS011;53333;51.976;20.144;2022-07-29T06:51:41;3.70;;;2.05;;
36663;SDS011;53333;51.976;20.144;2022-07-29T06:54:15;7.15;;;2.15;;
36663;SDS011;53333;51.976;20.144;2022-07-29T06:56:50;7.43;;;2.40;;
36663;SDS011;53333;51.976;20.144;2022-07-29T06:59:24;9.65;;;2.70;;
36663;SDS011;53333;51.976;20.144;2022-07-29T07:02:06;13.25;;;2.42;;
36663;SDS011;53333;51.976;20.144;2022-07-29T07:04:40;5.40;;;2.03;;
36663;SDS011;53333;51.976;20.144;2022-07-29T07:07:13;7.90;;;1.75;;
36663;SDS011;53333;51.976;20.144;2022-07-29T07:09:48;6.28;;;1.92;;
36663;SDS011;53333;51.976;20.144;2022-07-29T07:12:23;9.23;;;2.03;;
36663;SDS011;53333;51.976;20.144;2022-07-29T07:14:57;5.15;;;1.65;;
36663;SDS011;53333;51.976;20.144;2022-07-29T07:17:31;5.78;;;2.10;;
36663;SDS011;53333;51.976;20.144;2022-07-29T07:20:05;7.15;;;2.40;;
36663;SDS011;53333;51.976;20.144;2022-07-29T07:22:39;7.32;;;2.08;;
36663;SDS011;53333;51.976;20.144;2022-07-29T07:25:14;6.35;;;1.88;;
36663;SDS011;53333;51.976;20.144;2022-07-29T07:27:50;3.17;;;1.35;;
36663;SDS011;53333;51.976;20.144;2022-07-29T07:30:24;6.88;;;2.28;;
36663;SDS011;53333;51.976;20.144;2022-07-29T07:32:59;4.45;;;2.10;;
36663;SDS011;53333;51.976;20.144;2022-07-29T07:35:33;5.70;;;1.75;;
36663;SDS011;53333;51.976;20.144;2022-07-29T07:38:07;5.43;;;2.13;;
36663;SDS011;53333;51.976;20.144;2022-07-29T07:40:41;3.05;;;1.77;;
36663;SDS011;53333;51.976;20.144;2022-07-29T07:43:16;7.65;;;1.75;;
36663;SDS011;53333;51.976;20.144;2022-07-29T07:45:50;4.32;;;1.52;;
36663;SDS011;53333;51.976;20.144;2022-07-29T07:48:24;4.78;;;1.80;;
36663;SDS011;53333;51.976;20.144;2022-07-29T07:50:58;4.38;;;1.60;;
36663;SDS011;53333;51.976;20.144;2022-07-29T07:53:32;5.22;;;1.45;;
36663;SDS011;53333;51.976;20.144;2022-07-29T07:56:06;2.08;;;1.30;;
36663;SDS011;53333;51.976;20.144;2022-07-29T07:58:43;4.40;;;1.58;;
36663;SDS011;53333;51.976;20.144;2022-07-29T08:01:17;4.45;;;1.33;;
36663;SDS011;53333;51.976;20.144;2022-07-29T08:03:54;5.95;;;2.33;;
36663;SDS011;53333;51.976;20.144;2022-07-29T08:06:28;2.83;;;1.50;;
36663;SDS011;53333;51.976;20.144;2022-07-29T08:09:02;3.53;;;1.27;;
36663;SDS011;53333;51.976;20.144;2022-07-29T08:11:56;2.40;;;1.10;;
36663;SDS011;53333;51.976;20.144;2022-07-29T08:14:32;6.88;;;2.28;;
36663;SDS011;53333;51.976;20.144;2022-07-29T08:17:06;7.97;;;2.28;;
36663;SDS011;53333;51.976;20.144;2022-07-29T08:19:39;6.38;;;1.65;;
36663;SDS011;53333;51.976;20.144;2022-07-29T08:22:13;4.03;;;1.30;;
36663;SDS011;53333;51.976;20.144;2022-07-29T08:24:47;7.82;;;1.83;;
36663;SDS011;53333;51.976;20.144;2022-07-29T08:27:26;3.03;;;1.25;;
36663;SDS011;53333;51.976;20.144;2022-07-29T08:30:19;5.20;;;1.40;;
36663;SDS011;53333;51.976;20.144;2022-07-29T08:32:53;6.68;;;3.08;;
36663;SDS011;53333;51.976;20.144;2022-07-29T08:35:33;4.30;;;1.80;;
36663;SDS011;53333;51.976;20.144;2022-07-29T08:38:07;7.60;;;1.60;;
36663;SDS011;53333;51.976;20.144;2022-07-29T08:40:41;2.88;;;1.45;;
36663;SDS011;53333;51.976;20.144;2022-07-29T08:43:15;4.00;;;1.38;;
36663;SDS011;53333;51.976;20.144;2022-07-29T08:45:50;4.18;;;1.38;;
36663;SDS011;53333;51.976;20.144;2022-07-29T08:48:24;4.78;;;1.55;;
36663;SDS011;53333;51.976;20.144;2022-07-29T08:50:58;7.18;;;2.90;;
36663;SDS011;53333;51.976;20.144;2022-07-29T08:53:34;3.67;;;1.17;;
36663;SDS011;53333;51.976;20.144;2022-07-29T08:56:11;3.80;;;1.10;;
36663;SDS011;53333;51.976;20.144;2022-07-29T08:58:46;3.65;;;1.30;;
36663;SDS011;53333;51.976;20.144;2022-07-29T09:01:25;6.07;;;1.40;;
36663;SDS011;53333;51.976;20.144;2022-07-29T09:04:12;6.47;;;1.25;;
36663;SDS011;53333;51.976;20.144;2022-07-29T09:06:48;4.18;;;1.02;;
36663;SDS011;53333;51.976;20.144;2022-07-29T09:09:25;6.13;;;1.35;;
36663;SDS011;53333;51.976;20.144;2022-07-29T09:11:59;3.35;;;1.08;;
36663;SDS011;53333;51.976;20.144;2022-07-29T09:14:32;2.80;;;1.10;;
36663;SDS011;53333;51.976;20.144;2022-07-29T09:17:08;3.15;;;1.00;;
36663;SDS011;53333;51.976;20.144;2022-07-29T09:19:42;4.90;;;1.33;;
36663;SDS011;53333;51.976;20.144;2022-07-29T09:22:27;6.68;;;3.15;;
36663;SDS011;53333;51.976;20.144;2022-07-29T09:25:12;2.03;;;1.38;;
36663;SDS011;53333;51.976;20.144;2022-07-29T09:27:47;2.35;;;1.52;;
36663;SDS011;53333;51.976;20.144;2022-07-29T09:30:23;2.13;;;1.02;;
36663;SDS011;53333;51.976;20.144;2022-07-29T09:33:03;9.00;;;1.40;;
36663;SDS011;53333;51.976;20.144;2022-07-29T09:35:38;3.10;;;1.17;;
36663;SDS011;53333;51.976;20.144;2022-07-29T09:38:27;3.38;;;1.10;;
36663;SDS011;53333;51.976;20.144;2022-07-29T09:41:02;2.85;;;1.00;;
36663;SDS011;53333;51.976;20.144;2022-07-29T09:43:37;3.63;;;1.15;;
36663;SDS011;53333;51.976;20.144;2022-07-29T09:46:13;6.60;;;1.45;;
36663;SDS011;53333;51.976;20.144;2022-07-29T09:48:57;2.95;;;0.70;;
36663;SDS011;53333;51.976;20.144;2022-07-29T09:54:22;4.35;;;0.95;;
36663;SDS011;53333;51.976;20.144;2022-07-29T09:56:57;3.60;;;1.40;;
36663;SDS011;53333;51.976;20.144;2022-07-29T09:59:31;6.68;;;1.15;;
36663;SDS011;53333;51.976;20.144;2022-07-29T10:02:11;5.57;;;1.00;;
36663;SDS011;53333;51.976;20.144;2022-07-29T10:04:54;2.00;;;1.20;;
36663;SDS011;53333;51.976;20.144;2022-07-29T10:07:42;3.95;;;0.90;;
36663;SDS011;53333;51.976;20.144;2022-07-29T10:10:24;2.42;;;0.85;;
36663;SDS011;53333;51.976;20.144;2022-07-29T10:13:00;5.38;;;2.63;;
36663;SDS011;53333;51.976;20.144;2022-07-29T10:18:17;5.40;;;0.95;;
36663;SDS011;53333;51.976;20.144;2022-07-29T10:20:53;2.67;;;0.93;;
36663;SDS011;53333;51.976;20.144;2022-07-29T10:23:28;4.57;;;1.00;;
36663;SDS011;53333;51.976;20.144;2022-07-29T10:26:18;2.80;;;0.90;;
36663;SDS011;53333;51.976;20.144;2022-07-29T10:28:52;3.05;;;1.20;;
36663;SDS011;53333;51.976;20.144;2022-07-29T10:31:27;3.00;;;1.17;;
36663;SDS011;53333;51.976;20.144;2022-07-29T10:34:11;6.60;;;1.60;;
36663;SDS011;53333;51.976;20.144;2022-07-29T10:36:56;2.58;;;1.15;;
36663;SDS011;53333;51.976;20.144;2022-07-29T10:39:40;3.13;;;0.80;;
36663;SDS011;53333;51.976;20.144;2022-07-29T10:42:23;4.38;;;1.20;;
36663;SDS011;53333;51.976;20.144;2022-07-29T10:45:05;4.15;;;1.13;;
36663;SDS011;53333;51.976;20.144;2022-07-29T10:47:39;4.35;;;1.10;;
36663;SDS011;53333;51.976;20.144;2022-07-29T10:50:14;2.55;;;1.00;;
36663;SDS011;53333;51.976;20.144;2022-07-29T10:52:55;1.40;;;1.08;;
36663;SDS011;53333;51.976;20.144;2022-07-29T10:55:35;4.65;;;2.22;;
36663;SDS011;53333;51.976;20.144;2022-07-29T10:58:15;4.18;;;1.00;;
36663;SDS011;53333;51.976;20.144;2022-07-29T11:00:52;3.50;;;1.33;;
36663;SDS011;53333;51.976;20.144;2022-07-29T11:03:45;3.13;;;1.08;;
36663;SDS011;53333;51.976;20.144;2022-07-29T11:06:31;3.13;;;1.00;;
36663;SDS011;53333;51.976;20.144;2022-07-29T11:09:44;3.42;;;1.00;;
36663;SDS011;53333;51.976;20.144;2022-07-29T11:12:50;8.23;;;1.08;;
36663;SDS011;53333;51.976;20.144;2022-07-29T11:15:24;3.55;;;1.00;;
36663;SDS011;53333;51.976;20.144;2022-07-29T11:18:18;3.95;;;1.05;;
36663;SDS011;53333;51.976;20.144;2022-07-29T11:20:54;4.55;;;1.10;;
36663;SDS011;53333;51.976;20.144;2022-07-29T11:23:29;7.60;;;1.17;;
36663;SDS011;53333;51.976;20.144;2022-07-29T11:29:04;2.78;;;1.25;;
36663;SDS011;53333;51.976;20.144;2022-07-29T11:31:48;6.68;;;1.20;;
36663;SDS011;53333;51.976;20.144;2022-07-29T11:34:27;3.55;;;1.05;;
36663;SDS011;53333;51.976;20.144;2022-07-29T11:37:15;4.05;;;1.05;;
36663;SDS011;53333;51.976;20.144;2022-07-29T11:40:09;5.68;;;0.93;;
36663;SDS011;53333;51.976;20.144;2022-07-29T11:42:50;2.83;;;1.30;;
36663;SDS011;53333;51.976;20.144;2022-07-29T11:45:25;6.10;;;1.40;;
36663;SDS011;53333;51.976;20.144;2022-07-29T11:48:18;3.25;;;1.13;;
36663;SDS011;53333;51.976;20.144;2022-07-29T11:51:11;4.38;;;1.30;;
36663;SDS011;53333;51.976;20.144;2022-07-29T11:53:46;2.95;;;0.70;;
36663;SDS011;53333;51.976;20.144;2022-07-29T11:56:23;2.15;;;0.90;;
36663;SDS011;53333;51.976;20.144;2022-07-29T11:59:06;3.05;;;0.88;;
36663;SDS011;53333;51.976;20.144;2022-07-29T12:01:52;3.63;;;0.80;;
36663;SDS011;53333;51.976;20.144;2022-07-29T12:04:52;3.70;;;0.82;;
36663;SDS011;53333;51.976;20.144;2022-07-29T12:07:28;1.55;;;0.63;;
36663;SDS011;53333;51.976;20.144;2022-07-29T12:10:06;3.90;;;0.98;;
36663;SDS011;53333;51.976;20.144;2022-07-29T12:13:01;1.88;;;1.08;;
36663;SDS011;53333;51.976;20.144;2022-07-29T12:15:36;1.88;;;0.90;;
36663;SDS011;53333;51.976;20.144;2022-07-29T12:18:20;1.77;;;1.00;;
36663;SDS011;53333;51.976;20.144;2022-07-29T12:23:35;2.65;;;1.00;;
36663;SDS011;53333;51.976;20.144;2022-07-29T12:26:09;3.78;;;1.00;;
36663;SDS011;53333;51.976;20.144;2022-07-29T12:28:56;4.55;;;1.00;;
36663;SDS011;53333;51.976;20.144;2022-07-29T12:31:34;1.63;;;0.88;;
36663;SDS011;53333;51.976;20.144;2022-07-29T12:34:15;4.90;;;1.20;;
36663;SDS011;53333;51.976;20.144;2022-07-29T12:36:49;2.25;;;0.70;;
36663;SDS011;53333;51.976;20.144;2022-07-29T12:39:23;2.75;;;0.93;;
36663;SDS011;53333;51.976;20.144;2022-07-29T12:41:59;2.78;;;0.90;;
36663;SDS011;53333;51.976;20.144;2022-07-29T12:44:46;3.65;;;1.17;;
36663;SDS011;53333;51.976;20.144;2022-07-29T12:47:23;1.80;;;0.77;;
36663;SDS011;53333;51.976;20.144;2022-07-29T12:50:09;3.92;;;1.15;;
36663;SDS011;53333;51.976;20.144;2022-07-29T12:52:44;2.50;;;1.05;;
36663;SDS011;53333;51.976;20.144;2022-07-29T12:58:25;4.63;;;1.20;;
36663;SDS011;53333;51.976;20.144;2022-07-29T13:01:01;2.08;;;1.10;;
36663;SDS011;53333;51.976;20.144;2022-07-29T13:03:50;2.90;;;1.02;;
36663;SDS011;53333;51.976;20.144;2022-07-29T13:06:31;3.63;;;0.87;;
36663;SDS011;53333;51.976;20.144;2022-07-29T13:09:09;4.30;;;1.10;;
36663;SDS011;53333;51.976;20.144;2022-07-29T13:11:44;3.63;;;1.30;;
36663;SDS011;53333;51.976;20.144;2022-07-29T13:14:29;3.22;;;1.10;;
36663;SDS011;53333;51.976;20.144;2022-07-29T13:17:07;6.25;;;0.95;;
36663;SDS011;53333;51.976;20.144;2022-07-29T13:19:47;5.65;;;1.52;;
36663;SDS011;53333;51.976;20.144;2022-07-29T13:22:25;3.38;;;1.20;;
36663;SDS011;53333;51.976;20.144;2022-07-29T13:25:01;4.72;;;1.13;;
36663;SDS011;53333;51.976;20.144;2022-07-29T13:27:38;3.08;;;1.10;;
36663;SDS011;53333;51.976;20.144;2022-07-29T13:30:12;4.20;;;1.00;;
36663;SDS011;53333;51.976;20.144;2022-07-29T13:32:46;2.35;;;1.10;;
36663;SDS011;53333;51.976;20.144;2022-07-29T13:35:24;2.72;;;1.13;;
36663;SDS011;53333;51.976;20.144;2022-07-29T13:38:01;4.03;;;1.50;;
36663;SDS011;53333;51.976;20.144;2022-07-29T13:40:34;4.60;;;1.90;;
36663;SDS011;53333;51.976;20.144;2022-07-29T13:43:11;8.35;;;1.70;;
36663;SDS011;53333;51.976;20.144;2022-07-29T13:45:44;2.65;;;1.27;;
36663;SDS011;53333;51.976;20.144;2022-07-29T13:48:18;1.95;;;0.90;;
36663;SDS011;53333;51.976;20.144;2022-07-29T13:50:53;1.75;;;1.00;;
36663;SDS011;53333;51.976;20.144;2022-07-29T13:53:27;1.95;;;1.10;;
36663;SDS011;53333;51.976;20.144;2022-07-29T13:56:01;5.07;;;1.63;;
36663;SDS011;53333;51.976;20.144;2022-07-29T13:58:34;2.78;;;0.90;;
36663;SDS011;53333;51.976;20.144;2022-07-29T14:01:08;1.63;;;0.90;;
36663;SDS011;53333;51.976;20.144;2022-07-29T14:03:42;5.75;;;1.10;;
36663;SDS011;53333;51.976;20.144;2022-07-29T14:06:18;2.85;;;1.27;;
36663;SDS011;53333;51.976;20.144;2022-07-29T14:08:53;1.52;;;0.90;;
36663;SDS011;53333;51.976;20.144;2022-07-29T14:11:27;1.08;;;0.90;;
36663;SDS011;53333;51.976;20.144;2022-07-29T14:14:01;3.65;;;1.42;;
36663;SDS011;53333;51.976;20.144;2022-07-29T14:16:35;2.88;;;0.88;;
36663;SDS011;53333;51.976;20.144;2022-07-29T14:19:14;4.70;;;1.20;;
36663;SDS011;53333;51.976;20.144;2022-07-29T14:21:49;7.18;;;1.15;;
36663;SDS011;53333;51.976;20.144;2022-07-29T14:24:28;5.50;;;1.33;;
36663;SDS011;53333;51.976;20.144;2022-07-29T14:27:02;3.42;;;1.17;;
36663;SDS011;53333;51.976;20.144;2022-07-29T14:29:37;4.50;;;1.13;;
36663;SDS011;53333;51.976;20.144;2022-07-29T14:32:11;2.70;;;1.10;;
36663;SDS011;53333;51.976;20.144;2022-07-29T14:34:47;3.63;;;1.02;;
36663;SDS011;53333;51.976;20.144;2022-07-29T14:37:22;3.10;;;1.00;;
36663;SDS011;53333;51.976;20.144;2022-07-29T14:39:56;4.00;;;1.10;;
36663;SDS011;53333;51.976;20.144;2022-07-29T14:42:35;3.22;;;1.10;;
36663;SDS011;53333;51.976;20.144;2022-07-29T14:45:09;2.65;;;1.30;;
36663;SDS011;53333;51.976;20.144;2022-07-29T14:47:44;3.42;;;1.02;;
36663;SDS011;53333;51.976;20.144;2022-07-29T14:50:18;2.92;;;1.10;;
36663;SDS011;53333;51.976;20.144;2022-07-29T14:53:03;4.05;;;1.10;;
36663;SDS011;53333;51.976;20.144;2022-07-29T14:55:37;1.75;;;1.00;;
36663;SDS011;53333;51.976;20.144;2022-07-29T14:58:11;2.38;;;0.93;;
36663;SDS011;53333;51.976;20.144;2022-07-29T15:00:47;4.32;;;2.35;;
36663;SDS011;53333;51.976;20.144;2022-07-29T15:03:21;10.88;;;4.85;;
36663;SDS011;53333;51.976;20.144;2022-07-29T15:05:55;2.25;;;0.90;;
36663;SDS011;53333;51.976;20.144;2022-07-29T15:08:30;2.90;;;1.40;;
36663;SDS011;53333;51.976;20.144;2022-07-29T15:11:04;3.95;;;1.15;;
36663;SDS011;53333;51.976;20.144;2022-07-29T15:13:38;1.40;;;1.08;;
36663;SDS011;53333;51.976;20.144;2022-07-29T15:16:12;3.58;;;1.13;;
36663;SDS011;53333;51.976;20.144;2022-07-29T15:18:46;4.50;;;1.15;;
36663;SDS011;53333;51.976;20.144;2022-07-29T15:21:19;4.45;;;1.30;;
36663;SDS011;53333;51.976;20.144;2022-07-29T15:23:55;3.80;;;0.90;;
36663;SDS011;53333;51.976;20.144;2022-07-29T15:26:28;2.22;;;1.13;;
36663;SDS011;53333;51.976;20.144;2022-07-29T15:29:02;1.35;;;1.25;;
36663;SDS011;53333;51.976;20.144;2022-07-29T15:31:36;4.60;;;1.10;;
36663;SDS011;53333;51.976;20.144;2022-07-29T15:34:11;5.30;;;1.08;;
36663;SDS011;53333;51.976;20.144;2022-07-29T15:36:45;3.72;;;1.80;;
36663;SDS011;53333;51.976;20.144;2022-07-29T15:39:25;4.88;;;1.40;;
36663;SDS011;53333;51.976;20.144;2022-07-29T15:41:58;1.77;;;1.10;;
36663;SDS011;53333;51.976;20.144;2022-07-29T15:44:33;3.03;;;1.05;;
36663;SDS011;53333;51.976;20.144;2022-07-29T15:47:07;5.40;;;1.25;;
36663;SDS011;53333;51.976;20.144;2022-07-29T15:49:40;21.83;;;1.65;;
36663;SDS011;53333;51.976;20.144;2022-07-29T15:52:20;1.55;;;0.93;;
36663;SDS011;53333;51.976;20.144;2022-07-29T15:54:58;3.10;;;1.20;;
36663;SDS011;53333;51.976;20.144;2022-07-29T15:57:32;4.03;;;1.00;;
36663;SDS011;53333;51.976;20.144;2022-07-29T16:00:06;3.90;;;1.20;;
36663;SDS011;53333;51.976;20.144;2022-07-29T16:02:40;1.73;;;0.90;;
36663;SDS011;53333;51.976;20.144;2022-07-29T16:05:14;3.05;;;1.05;;
36663;SDS011;53333;51.976;20.144;2022-07-29T16:07:48;4.60;;;1.17;;
36663;SDS011;53333;51.976;20.144;2022-07-29T16:10:23;1.77;;;1.02;;
36663;SDS011;53333;51.976;20.144;2022-07-29T16:12:57;2.42;;;1.10;;
36663;SDS011;53333;51.976;20.144;2022-07-29T16:15:31;2.50;;;1.40;;
36663;SDS011;53333;51.976;20.144;2022-07-29T16:18:04;2.95;;;0.90;;
36663;SDS011;53333;51.976;20.144;2022-07-29T16:20:40;2.47;;;0.98;;
36663;SDS011;53333;51.976;20.144;2022-07-29T16:23:14;4.82;;;1.20;;